Vernal Regional Airport
KVEL : now visible

Airfield :











YOU CAN JOIN US ON...

 
LOGIN :

Register | Disclaimer

   EN    FR    IT 

 









Legend :    VFR   Marginal VFR   IFR   Intensive IFR   Very Intensive IFR
Visi :
Ceiling :
>= 8 km
>= 3000ft
5 to 8 km
1000 to 3000 ft
1500m to 5 km
500 to 1000 ft
800 to 1500m
200 to 500 ft
< 800m
< 200 ft
Symbols :   Thunderstorms  Fog  Heavy snow  Heavy precipitations  Wind > 20 kt






- Airport Elevation : 5278 ft


KVEL - Vernal Regional

CURRENT METAR :
  • 141853Z AUTO 27013G20KT 10SM CLR 33/M02 A3003 RMK AO2 SLP082 T03331022

EXPIRED METARs :
  • 141753Z AUTO 16005KT 10SM CLR 29/M01 A3004 RMK AO2 SLP096 T02941011 10300 20200 58002
  • 141653Z AUTO 14005KT 10SM CLR 28/M01 A3004 RMK AO2 SLP093 T02831011

TAF KVEL
Valid from the 14 at 18:00 until the 15 at 18:00 UTC


141735Z 1418/1518 14005KT P6SM FEW150
FM141900 19007KT P6SM FEW120 FEW250
FM142100 26015G24KT P6SM FEW120 SCT250
FM150300 35013KT P6SM FEW150 FEW250
FM150900 30005KT P6SM SKC
KZLC FIR / North America



MET'MAP, your aeronautical weather chart ! - Copyright ORBIFLY December 2007 - Disclaimer

ORBIFLY MET'MAP TEAM :

Programming & Development : Alexandra Zaïnal
Concept & original design : Baudouin d'Aumeries
Assistance for programming : Marc-Olivier Méhu
Technical & hardware support : Manuel Goepfert

Contact : metmap@orbifly.com




SOURCES & CREDITS :

   NOAA       Earth
Advisory